sensor_id;sensor_type;location;lat;lon;timestamp;pressure;altitude;pressure_sealevel;temperature;humidity
56052;BME280;41919;42.648;23.384;2023-03-11T00:00:18;92794.28;;;11.90;100.00
56052;BME280;41919;42.648;23.384;2023-03-11T00:02:46;92805.53;;;11.90;100.00
56052;BME280;41919;42.648;23.384;2023-03-11T00:05:17;92807.84;;;11.87;100.00
56052;BME280;41919;42.648;23.384;2023-03-11T00:07:43;92737.66;;;11.26;100.00
56052;BME280;41919;42.648;23.384;2023-03-11T00:10:17;92769.03;;;11.26;100.00
56052;BME280;41919;42.648;23.384;2023-03-11T00:12:42;92779.69;;;11.19;100.00
56052;BME280;41919;42.648;23.384;2023-03-11T00:15:08;92803.84;;;11.31;100.00
56052;BME280;41919;42.648;23.384;2023-03-11T00:17:34;92745.88;;;10.75;100.00
56052;BME280;41919;42.648;23.384;2023-03-11T00:20:00;92811.94;;;10.97;100.00
56052;BME280;41919;42.648;23.384;2023-03-11T00:22:25;92807.03;;;11.06;100.00
56052;BME280;41919;42.648;23.384;2023-03-11T00:24:51;92741.13;;;10.67;100.00
56052;BME280;41919;42.648;23.384;2023-03-11T00:27:16;92770.41;;;10.69;100.00
56052;BME280;41919;42.648;23.384;2023-03-11T00:29:42;92760.34;;;10.55;100.00
56052;BME280;41919;42.648;23.384;2023-03-11T00:32:07;92804.97;;;10.76;100.00
56052;BME280;41919;42.648;23.384;2023-03-11T00:34:33;92794.84;;;10.85;100.00
56052;BME280;41919;42.648;23.384;2023-03-11T00:36:58;92677.88;;;10.05;100.00
56052;BME280;41919;42.648;23.384;2023-03-11T00:39:24;92775.81;;;10.62;100.00
56052;BME280;41919;42.648;23.384;2023-03-11T00:41:49;92781.88;;;10.68;100.00
56052;BME280;41919;42.648;23.384;2023-03-11T00:44:16;92772.63;;;10.55;100.00
56052;BME280;41919;42.648;23.384;2023-03-11T00:46:41;92790.09;;;10.54;100.00
56052;BME280;41919;42.648;23.384;2023-03-11T00:49:07;92779.47;;;10.34;100.00
56052;BME280;41919;42.648;23.384;2023-03-11T00:51:32;92786.38;;;10.45;100.00
56052;BME280;41919;42.648;23.384;2023-03-11T00:53:57;92771.28;;;10.52;100.00
56052;BME280;41919;42.648;23.384;2023-03-11T00:56:25;92717.88;;;10.16;100.00
56052;BME280;41919;42.648;23.384;2023-03-11T00:58:50;92713.50;;;10.21;100.00
56052;BME280;41919;42.648;23.384;2023-03-11T01:01:18;92687.69;;;10.25;100.00
56052;BME280;41919;42.648;23.384;2023-03-11T01:03:44;92689.41;;;10.36;100.00
56052;BME280;41919;42.648;23.384;2023-03-11T01:06:10;92750.56;;;10.73;100.00
56052;BME280;41919;42.648;23.384;2023-03-11T01:08:36;92684.47;;;10.40;100.00
56052;BME280;41919;42.648;23.384;2023-03-11T01:11:03;92675.59;;;10.41;100.00
56052;BME280;41919;42.648;23.384;2023-03-11T01:13:30;92748.03;;;10.83;100.00
56052;BME280;41919;42.648;23.384;2023-03-11T01:15:56;92744.81;;;10.71;100.00
56052;BME280;41919;42.648;23.384;2023-03-11T01:18:22;92677.78;;;10.22;100.00
56052;BME280;41919;42.648;23.384;2023-03-11T01:20:48;92679.78;;;9.88;100.00
56052;BME280;41919;42.648;23.384;2023-03-11T01:23:17;92740.06;;;10.13;100.00
56052;BME280;41919;42.648;23.384;2023-03-11T01:25:44;92714.88;;;10.02;100.00
56052;BME280;41919;42.648;23.384;2023-03-11T01:28:09;92678.50;;;9.90;100.00
56052;BME280;41919;42.648;23.384;2023-03-11T01:30:37;92706.13;;;10.13;100.00
56052;BME280;41919;42.648;23.384;2023-03-11T01:33:04;92650.28;;;9.87;100.00
56052;BME280;41919;42.648;23.384;2023-03-11T01:35:30;92674.03;;;10.13;100.00
56052;BME280;41919;42.648;23.384;2023-03-11T01:37:56;92698.25;;;10.35;100.00
56052;BME280;41919;42.648;23.384;2023-03-11T01:40:27;92699.88;;;10.14;100.00
56052;BME280;41919;42.648;23.384;2023-03-11T01:42:53;92662.97;;;9.78;100.00
56052;BME280;41919;42.648;23.384;2023-03-11T01:47:57;92665.16;;;9.87;100.00
56052;BME280;41919;42.648;23.384;2023-03-11T01:50:24;92614.72;;;9.54;100.00
56052;BME280;41919;42.648;23.384;2023-03-11T01:52:52;92595.41;;;9.55;100.00
56052;BME280;41919;42.648;23.384;2023-03-11T01:55:18;92653.78;;;9.98;100.00
56052;BME280;41919;42.648;23.384;2023-03-11T01:57:45;92669.78;;;10.07;100.00
56052;BME280;41919;42.648;23.384;2023-03-11T02:00:12;92684.69;;;9.84;100.00
56052;BME280;41919;42.648;23.384;2023-03-11T02:02:50;92679.63;;;9.72;100.00
56052;BME280;41919;42.648;23.384;2023-03-11T02:05:20;92701.66;;;9.87;100.00
56052;BME280;41919;42.648;23.384;2023-03-11T02:07:47;92659.13;;;9.59;100.00
56052;BME280;41919;42.648;23.384;2023-03-11T02:10:14;92655.34;;;9.50;100.00
56052;BME280;41919;42.648;23.384;2023-03-11T02:12:40;92717.53;;;9.80;100.00
56052;BME280;41919;42.648;23.384;2023-03-11T02:15:07;92701.88;;;9.58;100.00
56052;BME280;41919;42.648;23.384;2023-03-11T02:17:35;92715.38;;;9.55;100.00
56052;BME280;41919;42.648;23.384;2023-03-11T02:22:29;92673.66;;;9.33;100.00
56052;BME280;41919;42.648;23.384;2023-03-11T02:25:02;92737.88;;;9.83;100.00
56052;BME280;41919;42.648;23.384;2023-03-11T02:27:31;92715.09;;;9.73;100.00
56052;BME280;41919;42.648;23.384;2023-03-11T02:29:58;92740.19;;;10.01;100.00
56052;BME280;41919;42.648;23.384;2023-03-11T02:32:25;92735.28;;;10.05;100.00
56052;BME280;41919;42.648;23.384;2023-03-11T02:34:50;92680.69;;;9.76;100.00
56052;BME280;41919;42.648;23.384;2023-03-11T02:37:16;92666.59;;;9.77;100.00
56052;BME280;41919;42.648;23.384;2023-03-11T02:39:45;92711.81;;;10.10;100.00
56052;BME280;41919;42.648;23.384;2023-03-11T02:42:14;92732.09;;;10.25;100.00
56052;BME280;41919;42.648;23.384;2023-03-11T02:44:43;92726.47;;;9.89;100.00
56052;BME280;41919;42.648;23.384;2023-03-11T02:47:10;92691.25;;;9.20;100.00
56052;BME280;41919;42.648;23.384;2023-03-11T02:49:36;92733.28;;;9.07;100.00
56052;BME280;41919;42.648;23.384;2023-03-11T02:52:02;92755.00;;;8.96;100.00
56052;BME280;41919;42.648;23.384;2023-03-11T02:54:28;92681.44;;;8.26;100.00
56052;BME280;41919;42.648;23.384;2023-03-11T02:56:53;92753.38;;;8.61;100.00
56052;BME280;41919;42.648;23.384;2023-03-11T02:59:19;92637.00;;;7.82;100.00
56052;BME280;41919;42.648;23.384;2023-03-11T03:01:44;92705.69;;;8.27;100.00
56052;BME280;41919;42.648;23.384;2023-03-11T03:04:10;92681.50;;;8.14;100.00
56052;BME280;41919;42.648;23.384;2023-03-11T03:06:35;92673.38;;;8.11;100.00
56052;BME280;41919;42.648;23.384;2023-03-11T03:09:01;92678.91;;;8.14;100.00
56052;BME280;41919;42.648;23.384;2023-03-11T03:11:26;92723.56;;;8.52;100.00
56052;BME280;41919;42.648;23.384;2023-03-11T03:13:52;92714.66;;;8.36;100.00
56052;BME280;41919;42.648;23.384;2023-03-11T03:16:17;92726.00;;;8.30;100.00
56052;BME280;41919;42.648;23.384;2023-03-11T03:18:43;92741.31;;;8.26;100.00
56052;BME280;41919;42.648;23.384;2023-03-11T03:21:08;92743.69;;;8.28;100.00
56052;BME280;41919;42.648;23.384;2023-03-11T03:23:34;92728.53;;;8.24;100.00
56052;BME280;41919;42.648;23.384;2023-03-11T03:26:03;92755.44;;;8.30;100.00
56052;BME280;41919;42.648;23.384;2023-03-11T03:28:28;92735.00;;;8.22;100.00
56052;BME280;41919;42.648;23.384;2023-03-11T03:30:54;92668.75;;;7.84;100.00
56052;BME280;41919;42.648;23.384;2023-03-11T03:33:19;92735.75;;;8.34;100.00
56052;BME280;41919;42.648;23.384;2023-03-11T03:35:45;92744.06;;;8.48;100.00
56052;BME280;41919;42.648;23.384;2023-03-11T03:38:10;92751.09;;;8.64;100.00
56052;BME280;41919;42.648;23.384;2023-03-11T03:40:36;92660.31;;;8.22;100.00
56052;BME280;41919;42.648;23.384;2023-03-11T03:43:03;92731.00;;;8.77;100.00
56052;BME280;41919;42.648;23.384;2023-03-11T03:45:28;92752.06;;;8.92;100.00
56052;BME280;41919;42.648;23.384;2023-03-11T03:47:54;92629.41;;;8.26;100.00
56052;BME280;41919;42.648;23.384;2023-03-11T03:50:20;92735.06;;;9.07;100.00
56052;BME280;41919;42.648;23.384;2023-03-11T03:52:46;92733.78;;;9.26;100.00
56052;BME280;41919;42.648;23.384;2023-03-11T03:55:11;92659.38;;;8.96;100.00
56052;BME280;41919;42.648;23.384;2023-03-11T03:57:36;92724.88;;;9.61;100.00
56052;BME280;41919;42.648;23.384;2023-03-11T04:00:03;92662.16;;;9.29;100.00
56052;BME280;41919;42.648;23.384;2023-03-11T04:02:30;92665.66;;;9.39;100.00
56052;BME280;41919;42.648;23.384;2023-03-11T04:04:56;92686.22;;;9.58;100.00
56052;BME280;41919;42.648;23.384;2023-03-11T04:07:21;92653.97;;;9.42;100.00
56052;BME280;41919;42.648;23.384;2023-03-11T04:09:47;92733.59;;;9.94;100.00
56052;BME280;41919;42.648;23.384;2023-03-11T04:12:13;92745.75;;;10.10;100.00
56052;BME280;41919;42.648;23.384;2023-03-11T04:14:40;92741.09;;;10.12;100.00
56052;BME280;41919;42.648;23.384;2023-03-11T04:17:06;92673.78;;;9.65;100.00
56052;BME280;41919;42.648;23.384;2023-03-11T04:19:32;92689.84;;;9.79;100.00
56052;BME280;41919;42.648;23.384;2023-03-11T04:21:57;92738.59;;;10.23;100.00
56052;BME280;41919;42.648;23.384;2023-03-11T04:24:23;92698.31;;;9.91;100.00
56052;BME280;41919;42.648;23.384;2023-03-11T04:26:48;92750.94;;;10.05;100.00
56052;BME280;41919;42.648;23.384;2023-03-11T04:29:13;92709.06;;;9.95;100.00
56052;BME280;41919;42.648;23.384;2023-03-11T04:31:39;92690.63;;;9.79;100.00
56052;BME280;41919;42.648;23.384;2023-03-11T04:34:05;92737.28;;;9.98;100.00
56052;BME280;41919;42.648;23.384;2023-03-11T04:36:30;92676.41;;;9.65;100.00
56052;BME280;41919;42.648;23.384;2023-03-11T04:38:56;92759.69;;;9.94;100.00
56052;BME280;41919;42.648;23.384;2023-03-11T04:41:22;92727.59;;;9.71;100.00
56052;BME280;41919;42.648;23.384;2023-03-11T04:43:47;92746.94;;;9.75;100.00
56052;BME280;41919;42.648;23.384;2023-03-11T04:46:12;92749.22;;;9.72;100.00
56052;BME280;41919;42.648;23.384;2023-03-11T04:48:38;92742.03;;;9.79;100.00
56052;BME280;41919;42.648;23.384;2023-03-11T04:51:04;92665.00;;;9.49;100.00
56052;BME280;41919;42.648;23.384;2023-03-11T04:53:29;92655.06;;;9.46;100.00
56052;BME280;41919;42.648;23.384;2023-03-11T04:55:55;92718.38;;;9.86;100.00
56052;BME280;41919;42.648;23.384;2023-03-11T04:58:20;92742.84;;;10.07;100.00
56052;BME280;41919;42.648;23.384;2023-03-11T05:00:45;92694.81;;;9.80;100.00
56052;BME280;41919;42.648;23.384;2023-03-11T05:03:11;92754.50;;;10.21;100.00
56052;BME280;41919;42.648;23.384;2023-03-11T05:05:36;92700.66;;;9.88;100.00
56052;BME280;41919;42.648;23.384;2023-03-11T05:08:02;92735.97;;;10.23;100.00
56052;BME280;41919;42.648;23.384;2023-03-11T05:10:28;92689.69;;;9.86;96.78
56052;BME280;41919;42.648;23.384;2023-03-11T05:12:53;92689.56;;;10.02;88.41
56052;BME280;41919;42.648;23.384;2023-03-11T05:15:19;92765.91;;;10.64;90.30
56052;BME280;41919;42.648;23.384;2023-03-11T05:17:45;92761.25;;;10.66;92.86
56052;BME280;41919;42.648;23.384;2023-03-11T05:20:10;92758.28;;;10.57;91.36
56052;BME280;41919;42.648;23.384;2023-03-11T05:22:37;92788.03;;;10.84;90.51
56052;BME280;41919;42.648;23.384;2023-03-11T05:25:02;92710.97;;;10.54;90.18
56052;BME280;41919;42.648;23.384;2023-03-11T05:27:28;92785.34;;;11.06;87.54
56052;BME280;41919;42.648;23.384;2023-03-11T05:29:54;92731.34;;;10.84;85.64
56052;BME280;41919;42.648;23.384;2023-03-11T05:32:19;92791.31;;;11.33;84.97
56052;BME280;41919;42.648;23.384;2023-03-11T05:34:45;92754.44;;;10.97;83.90
56052;BME280;41919;42.648;23.384;2023-03-11T05:37:11;92768.63;;;11.07;81.07
56052;BME280;41919;42.648;23.384;2023-03-11T05:39:37;92752.84;;;10.96;75.95
56052;BME280;41919;42.648;23.384;2023-03-11T05:42:03;92721.84;;;10.73;76.24
56052;BME280;41919;42.648;23.384;2023-03-11T05:44:30;92788.31;;;11.19;76.18
56052;BME280;41919;42.648;23.384;2023-03-11T05:46:55;92801.25;;;11.36;76.60
56052;BME280;41919;42.648;23.384;2023-03-11T05:49:21;92807.78;;;11.34;76.44
56052;BME280;41919;42.648;23.384;2023-03-11T05:51:48;92812.34;;;11.49;75.69
56052;BME280;41919;42.648;23.384;2023-03-11T05:54:13;92751.88;;;11.03;73.95
56052;BME280;41919;42.648;23.384;2023-03-11T05:56:43;92819.66;;;11.47;73.75
56052;BME280;41919;42.648;23.384;2023-03-11T05:59:10;92824.13;;;11.51;74.78
56052;BME280;41919;42.648;23.384;2023-03-11T06:01:36;92831.56;;;11.70;74.54
56052;BME280;41919;42.648;23.384;2023-03-11T06:04:02;92778.25;;;11.33;74.35
56052;BME280;41919;42.648;23.384;2023-03-11T06:06:28;92843.66;;;11.81;74.42
56052;BME280;41919;42.648;23.384;2023-03-11T06:08:54;92830.28;;;11.72;73.38
56052;BME280;41919;42.648;23.384;2023-03-11T06:11:20;92840.25;;;11.75;73.72
56052;BME280;41919;42.648;23.384;2023-03-11T06:13:45;92816.44;;;11.82;73.51
56052;BME280;41919;42.648;23.384;2023-03-11T06:16:11;92834.94;;;12.03;72.72
56052;BME280;41919;42.648;23.384;2023-03-11T06:18:37;92833.03;;;11.93;73.11
56052;BME280;41919;42.648;23.384;2023-03-11T06:21:03;92800.09;;;11.60;73.99
56052;BME280;41919;42.648;23.384;2023-03-11T06:23:29;92780.69;;;11.50;74.46
56052;BME280;41919;42.648;23.384;2023-03-11T06:25:59;92843.25;;;11.94;73.64
56052;BME280;41919;42.648;23.384;2023-03-11T06:28:26;92775.97;;;11.52;74.13
56052;BME280;41919;42.648;23.384;2023-03-11T06:30:52;92834.50;;;11.78;75.18
56052;BME280;41919;42.648;23.384;2023-03-11T06:33:17;92798.53;;;11.64;76.29
56052;BME280;41919;42.648;23.384;2023-03-11T06:35:43;92776.78;;;11.53;76.32
56052;BME280;41919;42.648;23.384;2023-03-11T06:38:09;92828.50;;;11.83;75.84
56052;BME280;41919;42.648;23.384;2023-03-11T06:40:36;92840.63;;;11.94;75.48
56052;BME280;41919;42.648;23.384;2023-03-11T06:43:02;92821.41;;;11.78;74.29
56052;BME280;41919;42.648;23.384;2023-03-11T06:45:28;92832.00;;;11.94;74.23
56052;BME280;41919;42.648;23.384;2023-03-11T06:47:53;92830.44;;;11.93;73.45
56052;BME280;41919;42.648;23.384;2023-03-11T06:50:18;92841.44;;;11.95;73.93
56052;BME280;41919;42.648;23.384;2023-03-11T06:52:44;92827.28;;;11.91;72.97
56052;BME280;41919;42.648;23.384;2023-03-11T06:55:10;92814.19;;;11.96;72.66
56052;BME280;41919;42.648;23.384;2023-03-11T06:57:35;92780.06;;;11.81;71.95
56052;BME280;41919;42.648;23.384;2023-03-11T07:00:01;92794.88;;;12.07;70.56
56052;BME280;41919;42.648;23.384;2023-03-11T07:02:26;92846.31;;;12.34;70.83
56052;BME280;41919;42.648;23.384;2023-03-11T07:04:51;92781.72;;;11.92;69.10
56052;BME280;41919;42.648;23.384;2023-03-11T07:07:17;92834.75;;;12.25;69.23
56052;BME280;41919;42.648;23.384;2023-03-11T07:09:42;92801.66;;;12.03;71.04
56052;BME280;41919;42.648;23.384;2023-03-11T07:12:08;92764.25;;;12.03;69.83
56052;BME280;41919;42.648;23.384;2023-03-11T07:14:34;92793.94;;;12.44;71.15
56052;BME280;41919;42.648;23.384;2023-03-11T07:16:59;92775.09;;;12.42;69.09
56052;BME280;41919;42.648;23.384;2023-03-11T07:19:25;92833.09;;;12.92;68.51
56052;BME280;41919;42.648;23.384;2023-03-11T07:21:50;92829.97;;;12.95;69.11
56052;BME280;41919;42.648;23.384;2023-03-11T07:24:16;92815.56;;;12.92;69.84
56052;BME280;41919;42.648;23.384;2023-03-11T07:26:41;92758.63;;;12.62;67.68
56052;BME280;41919;42.648;23.384;2023-03-11T07:29:07;92811.13;;;13.13;68.09
56052;BME280;41919;42.648;23.384;2023-03-11T07:31:34;92819.78;;;13.14;68.59
56052;BME280;41919;42.648;23.384;2023-03-11T07:34:02;92806.94;;;13.38;68.13
56052;BME280;41919;42.648;23.384;2023-03-11T07:36:28;92809.81;;;13.62;66.28
56052;BME280;41919;42.648;23.384;2023-03-11T07:38:58;92813.16;;;13.93;64.81
56052;BME280;41919;42.648;23.384;2023-03-11T07:41:25;92808.06;;;14.23;62.96
56052;BME280;41919;42.648;23.384;2023-03-11T07:43:56;92803.47;;;14.59;61.52
56052;BME280;41919;42.648;23.384;2023-03-11T07:46:23;92801.50;;;14.85;58.27
56052;BME280;41919;42.648;23.384;2023-03-11T07:48:49;92811.41;;;15.67;55.80
56052;BME280;41919;42.648;23.384;2023-03-11T07:51:23;92783.47;;;17.39;50.75
56052;BME280;41919;42.648;23.384;2023-03-11T07:53:52;92785.94;;;19.61;43.90
56052;BME280;41919;42.648;23.384;2023-03-11T07:56:18;92745.53;;;22.39;38.21
56052;BME280;41919;42.648;23.384;2023-03-11T07:58:44;92756.50;;;23.52;32.92
56052;BME280;41919;42.648;23.384;2023-03-11T08:01:19;92727.81;;;23.36;32.66
56052;BME280;41919;42.648;23.384;2023-03-11T08:03:46;92741.50;;;25.03;30.38
56052;BME280;41919;42.648;23.384;2023-03-11T08:08:38;92690.56;;;27.38;24.45
56052;BME280;41919;42.648;23.384;2023-03-11T08:11:03;92722.59;;;28.16;24.59
56052;BME280;41919;42.648;23.384;2023-03-11T08:13:29;92683.50;;;28.42;23.49
56052;BME280;41919;42.648;23.384;2023-03-11T08:15:54;92713.81;;;28.96;23.47
56052;BME280;41919;42.648;23.384;2023-03-11T08:18:19;92716.28;;;29.39;22.40
56052;BME280;41919;42.648;23.384;2023-03-11T08:20:45;92607.50;;;28.72;22.46
56052;BME280;41919;42.648;23.384;2023-03-11T08:23:10;92696.91;;;29.97;21.53
56052;BME280;41919;42.648;23.384;2023-03-11T08:25:39;92677.03;;;29.34;20.87
56052;BME280;41919;42.648;23.384;2023-03-11T08:28:06;92708.88;;;29.28;21.33
56052;BME280;41919;42.648;23.384;2023-03-11T08:30:32;92707.31;;;29.27;22.79
56052;BME280;41919;42.648;23.384;2023-03-11T08:32:58;92699.31;;;28.74;22.31
56052;BME280;41919;42.648;23.384;2023-03-11T08:35:24;92695.84;;;27.35;23.17
56052;BME280;41919;42.648;23.384;2023-03-11T08:37:50;92702.41;;;26.83;23.39
56052;BME280;41919;42.648;23.384;2023-03-11T08:40:16;92702.63;;;26.74;23.00
56052;BME280;41919;42.648;23.384;2023-03-11T08:42:41;92697.06;;;25.99;24.58
56052;BME280;41919;42.648;23.384;2023-03-11T08:45:08;92687.13;;;25.84;25.71
56052;BME280;41919;42.648;23.384;2023-03-11T08:47:35;92681.84;;;26.19;24.63
56052;BME280;41919;42.648;23.384;2023-03-11T08:50:02;92673.25;;;26.10;24.87
56052;BME280;41919;42.648;23.384;2023-03-11T08:52:27;92673.19;;;26.42;24.33
56052;BME280;41919;42.648;23.384;2023-03-11T08:54:53;92596.59;;;25.54;23.99
56052;BME280;41919;42.648;23.384;2023-03-11T08:57:18;92662.97;;;25.08;25.36
56052;BME280;41919;42.648;23.384;2023-03-11T08:59:44;92578.47;;;24.59;26.18
56052;BME280;41919;42.648;23.384;2023-03-11T09:02:09;92669.84;;;24.93;25.80
56052;BME280;41919;42.648;23.384;2023-03-11T09:04:35;92628.44;;;24.34;26.08
56052;BME280;41919;42.648;23.384;2023-03-11T09:07:01;92567.00;;;23.44;26.93
56052;BME280;41919;42.648;23.384;2023-03-11T09:09:26;92656.38;;;24.24;27.06
56052;BME280;41919;42.648;23.384;2023-03-11T09:11:52;92653.72;;;24.24;27.03
56052;BME280;41919;42.648;23.384;2023-03-11T09:14:17;92665.25;;;24.53;26.94
56052;BME280;41919;42.648;23.384;2023-03-11T09:16:43;92655.13;;;24.59;26.24
56052;BME280;41919;42.648;23.384;2023-03-11T09:19:08;92615.91;;;23.61;27.43
56052;BME280;41919;42.648;23.384;2023-03-11T09:21:34;92618.63;;;22.01;29.50
56052;BME280;41919;42.648;23.384;2023-03-11T09:24:00;92654.44;;;21.27;31.41
56052;BME280;41919;42.648;23.384;2023-03-11T09:26:29;92588.59;;;20.33;32.51
56052;BME280;41919;42.648;23.384;2023-03-11T09:28:54;92643.22;;;20.43;33.59
56052;BME280;41919;42.648;23.384;2023-03-11T09:31:20;92641.19;;;20.57;34.32
56052;BME280;41919;42.648;23.384;2023-03-11T09:33:45;92636.91;;;20.04;34.76
56052;BME280;41919;42.648;23.384;2023-03-11T09:36:13;92642.00;;;20.66;34.33
56052;BME280;41919;42.648;23.384;2023-03-11T09:38:39;92649.31;;;21.04;33.45
56052;BME280;41919;42.648;23.384;2023-03-11T09:52:10;92613.88;;;20.30;34.09
56052;BME280;41919;42.648;23.384;2023-03-11T09:54:47;92641.06;;;20.71;34.28
56052;BME280;41919;42.648;23.384;2023-03-11T09:57:22;92620.44;;;20.76;33.67
56052;BME280;41919;42.648;23.384;2023-03-11T09:59:49;92566.59;;;20.41;33.65
56052;BME280;41919;42.648;23.384;2023-03-11T10:02:18;92557.56;;;20.60;33.70
56052;BME280;41919;42.648;23.384;2023-03-11T10:04:50;92612.81;;;20.66;32.83
56052;BME280;41919;42.648;23.384;2023-03-11T10:07:24;92641.03;;;20.45;33.09
56052;BME280;41919;42.648;23.384;2023-03-11T10:09:56;92571.44;;;20.22;33.42
56052;BME280;41919;42.648;23.384;2023-03-11T10:25:15;92643.06;;;19.73;33.39
56052;BME280;41919;42.648;23.384;2023-03-11T10:27:48;92644.03;;;19.46;33.22
56052;BME280;41919;42.648;23.384;2023-03-11T10:30:39;92644.81;;;19.46;33.76
56052;BME280;41919;42.648;23.384;2023-03-11T10:35:43;92639.50;;;18.84;35.13
56052;BME280;41919;42.648;23.384;2023-03-11T10:38:25;92659.00;;;18.88;35.20
56052;BME280;41919;42.648;23.384;2023-03-11T10:40:54;92587.66;;;18.23;35.21
56052;BME280;41919;42.648;23.384;2023-03-11T10:43:28;92595.50;;;17.92;35.34
56052;BME280;41919;42.648;23.384;2023-03-11T10:45:56;92664.19;;;17.92;35.66
56052;BME280;41919;42.648;23.384;2023-03-11T10:48:24;92630.22;;;17.72;35.93
56052;BME280;41919;42.648;23.384;2023-03-11T10:50:56;92666.94;;;17.87;37.60
56052;BME280;41919;42.648;23.384;2023-03-11T10:53:25;92659.28;;;17.72;41.18
56052;BME280;41919;42.648;23.384;2023-03-11T10:55:53;92654.00;;;17.44;40.68
56052;BME280;41919;42.648;23.384;2023-03-11T10:58:24;92606.97;;;16.85;41.02
56052;BME280;41919;42.648;23.384;2023-03-11T11:01:06;92619.53;;;16.94;40.65
56052;BME280;41919;42.648;23.384;2023-03-11T11:03:40;92613.38;;;16.79;41.55
56052;BME280;41919;42.648;23.384;2023-03-11T11:09:14;92687.56;;;16.21;42.96
56052;BME280;41919;42.648;23.384;2023-03-11T11:11:41;92689.22;;;15.93;43.89
56052;BME280;41919;42.648;23.384;2023-03-11T11:14:07;92679.25;;;15.90;44.91
56052;BME280;41919;42.648;23.384;2023-03-11T11:16:34;92680.84;;;16.10;44.51
56052;BME280;41919;42.648;23.384;2023-03-11T11:19:08;92634.69;;;15.93;45.59
56052;BME280;41919;42.648;23.384;2023-03-11T11:24:34;92669.72;;;16.89;42.46
56052;BME280;41919;42.648;23.384;2023-03-11T11:29:40;92643.56;;;16.92;40.71
56052;BME280;41919;42.648;23.384;2023-03-11T11:34:41;92590.28;;;16.57;41.41
56052;BME280;41919;42.648;23.384;2023-03-11T11:37:11;92667.59;;;16.91;42.23
56052;BME280;41919;42.648;23.384;2023-03-11T11:39:48;92649.59;;;16.93;43.70
56052;BME280;41919;42.648;23.384;2023-03-11T11:42:18;92599.00;;;16.39;48.19
56052;BME280;41919;42.648;23.384;2023-03-11T11:44:48;92634.50;;;16.79;44.98
56052;BME280;41919;42.648;23.384;2023-03-11T11:47:23;92569.88;;;16.30;45.83
56052;BME280;41919;42.648;23.384;2023-03-11T11:49:55;92580.50;;;16.58;45.56
56052;BME280;41919;42.648;23.384;2023-03-11T11:52:29;92612.84;;;16.82;45.05
56052;BME280;41919;42.648;23.384;2023-03-11T11:54:57;92609.03;;;16.89;45.53
56052;BME280;41919;42.648;23.384;2023-03-11T11:57:26;92535.41;;;16.73;43.51
56052;BME280;41919;42.648;23.384;2023-03-11T11:59:51;92605.69;;;17.43;41.65
56052;BME280;41919;42.648;23.384;2023-03-11T12:05:16;92567.16;;;17.15;41.11
56052;BME280;41919;42.648;23.384;2023-03-11T12:08:15;92610.66;;;17.73;40.78
56052;BME280;41919;42.648;23.384;2023-03-11T12:10:53;92603.44;;;17.64;40.67
56052;BME280;41919;42.648;23.384;2023-03-11T12:18:39;92528.34;;;16.88;37.26
56052;BME280;41919;42.648;23.384;2023-03-11T12:26:47;92577.31;;;16.94;38.30
56052;BME280;41919;42.648;23.384;2023-03-11T12:29:27;92537.44;;;16.62;38.96
56052;BME280;41919;42.648;23.384;2023-03-11T12:31:54;92540.88;;;16.63;37.94
56052;BME280;41919;42.648;23.384;2023-03-11T12:34:22;92559.50;;;16.53;38.31
56052;BME280;41919;42.648;23.384;2023-03-11T12:36:50;92596.25;;;16.82;38.81
56052;BME280;41919;42.648;23.384;2023-03-11T12:39:27;92579.34;;;16.64;39.15
56052;BME280;41919;42.648;23.384;2023-03-11T12:42:16;92593.13;;;16.28;40.21
56052;BME280;41919;42.648;23.384;2023-03-11T12:44:43;92525.72;;;15.46;41.63
56052;BME280;41919;42.648;23.384;2023-03-11T12:49:39;92541.16;;;15.09;42.47
56052;BME280;41919;42.648;23.384;2023-03-11T12:54:41;92608.81;;;15.52;43.64
56052;BME280;41919;42.648;23.384;2023-03-11T13:00:02;92603.72;;;15.61;43.64
56052;BME280;41919;42.648;23.384;2023-03-11T13:02:42;92613.81;;;15.54;43.56
56052;BME280;41919;42.648;23.384;2023-03-11T13:05:21;92544.44;;;15.20;43.35
56052;BME280;41919;42.648;23.384;2023-03-11T13:08:11;92562.44;;;15.56;43.64
56052;BME280;41919;42.648;23.384;2023-03-11T13:10:41;92625.50;;;16.10;43.19
56052;BME280;41919;42.648;23.384;2023-03-11T13:16:34;92622.94;;;16.42;42.97
56052;BME280;41919;42.648;23.384;2023-03-11T13:18:45;92626.63;;;16.41;42.26
56052;BME280;41919;42.648;23.384;2023-03-11T13:29:37;92660.47;;;15.96;42.58
56052;BME280;41919;42.648;23.384;2023-03-11T13:32:16;92656.44;;;15.80;43.37
56052;BME280;41919;42.648;23.384;2023-03-11T13:37:57;92699.50;;;15.41;44.73
56052;BME280;41919;42.648;23.384;2023-03-11T13:40:40;92715.66;;;15.29;47.05
56052;BME280;41919;42.648;23.384;2023-03-11T13:43:23;92708.56;;;15.00;51.32
56052;BME280;41919;42.648;23.384;2023-03-11T13:46:00;92660.94;;;14.28;55.77
56052;BME280;41919;42.648;23.384;2023-03-11T13:48:32;92731.59;;;14.29;57.70
56052;BME280;41919;42.648;23.384;2023-03-11T13:51:05;92739.13;;;13.86;60.68
56052;BME280;41919;42.648;23.384;2023-03-11T13:53:41;92666.59;;;13.25;61.76
56052;BME280;41919;42.648;23.384;2023-03-11T13:56:22;92744.25;;;13.37;65.29
56052;BME280;41919;42.648;23.384;2023-03-11T13:58:49;92727.47;;;13.07;66.87
56052;BME280;41919;42.648;23.384;2023-03-11T14:01:16;92731.91;;;12.86;67.80
56052;BME280;41919;42.648;23.384;2023-03-11T14:03:43;92762.06;;;12.93;69.92
56052;BME280;41919;42.648;23.384;2023-03-11T14:06:18;92748.44;;;12.91;72.07
56052;BME280;41919;42.648;23.384;2023-03-11T14:08:55;92694.16;;;12.51;71.38
56052;BME280;41919;42.648;23.384;2023-03-11T14:11:26;92737.94;;;12.66;72.78